Nong Khai, Thailand
Current Conditions -  °F | °C
As of 8:30 PM on Tuesday 21 Oct 2014 (Local Time) from VLVT Reporting Station
Haze Haze  
Wind Chill: 84°   Ceiling: Unl
Heat Index: 92°   Visibility: 2.5mi
Dew Point: 75°   Wind: 2mph
Humidity: 74%   Direction: 320°NW
Pressure: 29.88"   Gusts: NA
Location:  17.88°N, 102.74°E
Report Text: VLVT 211330Z 32002KT 4000 BR FEW050 29/24 Q1012 NOSIG
Loading
Personal Weather Stations






























Interactive Weather Map New forecast layout! Learn more

10-Day Weather Forecast

Advertisements
Track Severe Weather on mobile